Terminal Aerodrome Forecast
Issued by NWS

Home | Current Version | Previous Version | Text Only | Print | Product List | Glossary On
Versions: 1 2 3 4 5 6 7 8 9 10 11 12 13 14 15 16 17 18 19 20 21 22 23 24 25 26 27 28
000
FTUS41 KBTV 260823 AAQ
TAFSLK
TAF AMD
KSLK 260823Z 2608/2706 06007KT P6SM VCSH BKN025 OVC070
     FM261200 11005KT 4SM -SHRA BR OVC016
     FM261600 17005KT 4SM -RA BR OVC013 WS020/21040KT
     FM261900 21006KT 4SM -RA BR OVC010 WS020/22045KT
     FM262300 VRB04KT 4SM -SHRA BR OVC006=

USA.gov is the U.S. government's official web portal to all federal, state and local government web resources and services.